Jenny — WDB7954 — position and weather

sailwx.info

Track history (hours):
 
Tides and Currents Weather Stations Pressure Air Temp Water Temp Dewpoint Dewpoint Depression Visibility Wind Speed Wind Dir Waves Ship Positions

Jenny

Owner: Wilmington Tug, Inc., New Castle, DE. More information available from US FCC via Universal Licensing System and Coast Guard Vessel Documentation Center.

Last reported at 2018-Jan-23 01:56 UTC. Time now 2018-Jan-23 03:55 UTC.
Position N 39°43' W 075°31'.

Length 12 m; draft 1.1 m.

Type: Passenger vessel. MMSI: 366950410.

Date/timePositionNaut miles runAvg speedWind from/ knotsBaromVisibWave heightAir tempDewpointWater temp
2018-Jan-23 01:56N 39°43' W 075°31'3 1.2
2018-Jan-22 23:46N 39°41' W 075°32'2 0.4
2018-Jan-22 17:42N 39°43' W 075°30'2 0.9
2018-Jan-22 15:29N 39°41' W 075°31'2 0.5
2018-Jan-22 11:00N 39°43' W 075°31'3 1.7
2018-Jan-22 08:57N 39°40' W 075°33'3 0.4
2018-Jan-22 01:06N 39°43' W 075°30'  
2018-Jan-18 13:30N 39°43' W 075°31'815.6
2018-Jan-18 13:00N 39°36' W 075°34'2 4.3
2018-Jan-18 12:30N 39°38' W 075°34'611.6
2018-Jan-18 12:00N 39°43' W 075°31'  
Track history (hours):
 
Tides and Currents Weather Stations Pressure Air Temp Water Temp Dewpoint Dewpoint Depression Visibility Wind Speed Wind Dir Waves Ship Positions

Jenny

Owner: Wilmington Tug, Inc., New Castle, DE. More information available from US FCC via Universal Licensing System and Coast Guard Vessel Documentation Center.

Last reported at 2018-Jan-23 01:56 UTC. Time now 2018-Jan-23 03:55 UTC.
Position N 39°43' W 075°31'.

Length 12 m; draft 1.1 m.

Type: Passenger vessel. MMSI: 366950410.

Date/timePositionNaut miles runAvg speedWind from/ knotsBaromVisibWave heightAir tempDewpointWater temp
2018-Jan-23 01:56N 39°43' W 075°31'3 1.2
2018-Jan-22 23:46N 39°41' W 075°32'2 0.4
2018-Jan-22 17:42N 39°43' W 075°30'2 0.9
2018-Jan-22 15:29N 39°41' W 075°31'2 0.5
2018-Jan-22 11:00N 39°43' W 075°31'3 1.7
2018-Jan-22 08:57N 39°40' W 075°33'3 0.4
2018-Jan-22 01:06N 39°43' W 075°30'  
2018-Jan-18 13:30N 39°43' W 075°31'815.6
2018-Jan-18 13:00N 39°36' W 075°34'2 4.3
2018-Jan-18 12:30N 39°38' W 075°34'611.6
2018-Jan-18 12:00N 39°43' W 075°31'  

Dump ship's entire track history